createdAt,value
2017-07-14T00:00:45.040Z,12.3
2017-07-14T00:01:52.176Z,12.3
2017-07-14T00:02:59.652Z,12.3
2017-07-14T00:04:07.123Z,12.3
2017-07-14T00:05:14.596Z,12.3
2017-07-14T00:06:22.374Z,12.3
2017-07-14T00:07:29.849Z,12.3
2017-07-14T00:08:37.331Z,12.3
2017-07-14T00:09:44.802Z,12.3
2017-07-14T00:10:52.281Z,12.3
2017-07-14T00:12:00.058Z,12.3
2017-07-14T00:13:07.531Z,12.4
2017-07-14T00:14:15.011Z,12.3
2017-07-14T00:15:22.487Z,12.3
2017-07-14T00:16:29.632Z,12.3
2017-07-14T00:17:37.419Z,12.3
2017-07-14T00:18:44.898Z,12.3
2017-07-14T00:19:52.371Z,12.3
2017-07-14T00:20:59.846Z,12.3
2017-07-14T00:22:07.318Z,12.3
2017-07-14T00:23:14.731Z,12.3
2017-07-14T00:24:22.218Z,12.3
2017-07-14T00:25:29.693Z,12.3
2017-07-14T00:26:37.180Z,12.3
2017-07-14T00:27:44.655Z,12.3
2017-07-14T00:28:52.439Z,12.3
2017-07-14T00:29:59.916Z,12.3
2017-07-14T00:31:07.068Z,12.3
2017-07-14T00:32:14.549Z,12.3
2017-07-14T00:33:22.030Z,12.3
2017-07-14T00:34:29.752Z,12.3
2017-07-14T00:35:37.234Z,12.3
2017-07-14T00:36:44.705Z,12.3
2017-07-14T00:37:51.841Z,12.3
2017-07-14T00:38:59.318Z,12.3
2017-07-14T00:40:07.089Z,12.3
2017-07-14T00:41:14.243Z,12.3
2017-07-14T00:42:21.712Z,12.3
2017-07-14T00:43:29.207Z,12.3
2017-07-14T00:44:36.691Z,12.3
2017-07-14T00:45:44.414Z,12.3
2017-07-14T00:46:51.896Z,12.3
2017-07-14T00:47:59.372Z,12.3
2017-07-14T00:49:06.851Z,12.3
2017-07-14T00:50:14.337Z,12.3
2017-07-14T00:51:22.112Z,12.3
2017-07-14T00:52:29.587Z,12.3
2017-07-14T00:53:37.060Z,12.3
2017-07-14T00:54:44.534Z,12.3
2017-07-14T00:55:51.680Z,12.3
2017-07-14T00:56:59.458Z,12.3
2017-07-14T00:58:06.934Z,12.2
2017-07-14T00:59:14.417Z,12.3
2017-07-14T01:00:21.890Z,12.3
2017-07-14T01:01:29.366Z,12.3
2017-07-14T01:02:37.142Z,12.2
2017-07-14T01:03:44.615Z,12.3
2017-07-14T01:04:52.100Z,12.3
2017-07-14T01:05:59.577Z,12.3
2017-07-14T01:07:06.719Z,12.2
2017-07-14T01:08:14.165Z,12.3
2017-07-14T01:09:21.631Z,12.3
2017-07-14T01:10:29.112Z,12.3
2017-07-14T01:11:36.593Z,12.3
2017-07-14T01:12:44.067Z,12.3
2017-07-14T01:13:51.508Z,12.3
2017-07-14T01:14:59.010Z,12.3
2017-07-14T01:16:06.478Z,12.3
2017-07-14T01:17:13.960Z,12.3
2017-07-14T01:18:21.440Z,12.3
2017-07-14T01:19:29.212Z,12.2
2017-07-14T01:20:36.685Z,12.3
2017-07-14T01:21:43.831Z,12.2
2017-07-14T01:22:51.307Z,12.2
2017-07-14T01:23:58.775Z,12.2
2017-07-14T01:25:06.173Z,12.2
2017-07-14T01:26:13.648Z,12.2
2017-07-14T01:27:21.124Z,12.2
2017-07-14T01:28:28.273Z,12.2
2017-07-14T01:29:35.775Z,12.2
2017-07-14T01:30:43.545Z,12.2
2017-07-14T01:31:51.021Z,12.2
2017-07-14T01:32:58.501Z,12.2
2017-07-14T01:34:05.977Z,12.1
2017-07-14T01:35:13.452Z,12.1
2017-07-14T01:36:21.229Z,12.1
2017-07-14T01:37:28.700Z,12.1
2017-07-14T01:38:36.167Z,12.1
2017-07-14T01:39:43.310Z,12.1
2017-07-14T01:40:50.785Z,12.1
2017-07-14T01:42:13.149Z,12.1
2017-07-14T01:43:20.647Z,12
2017-07-14T01:44:28.120Z,12
2017-07-14T01:45:35.593Z,12
2017-07-14T01:46:42.728Z,12
2017-07-14T01:47:50.452Z,12
2017-07-14T01:48:57.923Z,12
2017-07-14T01:50:05.398Z,12
2017-07-14T01:51:12.876Z,11.9
2017-07-14T01:52:20.022Z,11.9
2017-07-14T01:53:27.797Z,11.9
2017-07-14T01:54:35.274Z,11.9
2017-07-14T01:55:42.751Z,11.9
2017-07-14T01:56:50.228Z,11.9
2017-07-14T01:57:57.697Z,11.9
2017-07-14T01:59:05.476Z,11.9
2017-07-14T02:00:12.950Z,11.9
2017-07-14T02:01:20.431Z,11.9
2017-07-14T02:02:27.904Z,11.9
2017-07-14T02:03:35.381Z,11.9
2017-07-14T02:04:57.741Z,11.9
2017-07-14T02:06:05.209Z,11.8
2017-07-14T02:07:12.352Z,11.8
2017-07-14T02:08:19.828Z,11.8
2017-07-14T02:09:27.302Z,11.8
2017-07-14T02:10:35.076Z,11.7
2017-07-14T02:11:42.549Z,11.7
2017-07-14T02:12:50.023Z,11.7
2017-07-14T02:13:57.500Z,11.7
2017-07-14T02:15:04.976Z,11.7
2017-07-14T02:16:12.416Z,11.7
2017-07-14T02:17:19.895Z,11.7
2017-07-14T02:18:27.372Z,11.7
2017-07-14T02:19:34.841Z,11.6
2017-07-14T02:20:42.315Z,11.6
2017-07-14T02:21:50.034Z,11.6
2017-07-14T02:22:57.519Z,11.6
2017-07-14T02:24:04.662Z,11.6
2017-07-14T02:25:11.477Z,11.6
2017-07-14T02:26:18.948Z,11.6
2017-07-14T02:27:26.741Z,11.6
2017-07-14T02:28:34.217Z,11.6
2017-07-14T02:29:41.688Z,11.6
2017-07-14T02:30:49.164Z,11.6
2017-07-14T02:31:56.636Z,11.5
2017-07-14T02:33:04.417Z,11.5
2017-07-14T02:34:11.896Z,11.6
2017-07-14T02:35:19.374Z,11.5
2017-07-14T02:36:26.848Z,11.5
2017-07-14T02:37:33.992Z,11.5
2017-07-14T02:38:41.773Z,11.5
2017-07-14T02:39:49.252Z,11.5
2017-07-14T02:40:56.725Z,11.5
2017-07-14T02:42:04.204Z,11.5
2017-07-14T02:43:11.684Z,11.5
2017-07-14T02:44:19.406Z,11.5
2017-07-14T02:45:26.883Z,11.5
2017-07-14T02:46:34.357Z,11.5
2017-07-14T02:47:41.829Z,11.5
2017-07-14T02:48:49.299Z,11.5
2017-07-14T02:49:57.074Z,11.5
2017-07-14T02:51:04.577Z,11.5
2017-07-14T02:52:11.717Z,11.5
2017-07-14T02:53:18.857Z,11.5
2017-07-14T02:54:26.353Z,11.5
2017-07-14T02:55:34.128Z,11.5
2017-07-14T02:56:41.609Z,11.5
2017-07-14T02:57:49.085Z,11.4
2017-07-14T02:58:56.560Z,11.4
2017-07-14T03:00:04.039Z,11.4
2017-07-14T03:01:11.770Z,11.4
2017-07-14T03:02:19.244Z,11.4
2017-07-14T03:03:26.394Z,11.4
2017-07-14T03:04:33.863Z,11.4
2017-07-14T03:05:41.339Z,11.4
2017-07-14T03:06:49.111Z,11.4
2017-07-14T03:07:56.590Z,11.4
2017-07-14T03:09:04.062Z,11.4
2017-07-14T03:10:11.532Z,11.4
2017-07-14T03:11:19.000Z,11.4
2017-07-14T03:12:26.785Z,11.4
2017-07-14T03:13:34.267Z,11.4
2017-07-14T03:14:41.406Z,11.4
2017-07-14T03:15:48.883Z,11.4
2017-07-14T03:16:56.351Z,11.4
2017-07-14T03:18:03.788Z,11.4
2017-07-14T03:19:11.279Z,11.4
2017-07-14T03:20:18.758Z,11.4
2017-07-14T03:21:26.226Z,11.4
2017-07-14T03:22:33.702Z,11.4
2017-07-14T03:23:41.475Z,11.5
2017-07-14T03:24:48.946Z,11.5
2017-07-14T03:25:56.420Z,11.5
2017-07-14T03:27:03.893Z,11.5
2017-07-14T03:28:11.367Z,11.5
2017-07-14T03:29:18.805Z,11.5
2017-07-14T03:30:26.179Z,11.5
2017-07-14T03:31:33.640Z,11.5
2017-07-14T03:32:41.115Z,11.5
2017-07-14T03:33:48.582Z,11.5
2017-07-14T03:34:56.310Z,11.5
2017-07-14T03:36:03.785Z,11.5
2017-07-14T03:37:11.261Z,11.5
2017-07-14T03:38:18.768Z,11.6
2017-07-14T03:39:26.238Z,11.6
2017-07-14T03:40:34.061Z,11.6
2017-07-14T03:41:41.203Z,11.6
2017-07-14T03:42:48.344Z,11.6
2017-07-14T03:43:56.041Z,11.7
2017-07-14T03:45:03.510Z,11.7
2017-07-14T03:46:11.287Z,11.7
2017-07-14T03:47:18.430Z,11.7
2017-07-14T03:48:25.570Z,11.7
2017-07-14T03:49:33.047Z,11.7
2017-07-14T03:50:40.514Z,11.7
2017-07-14T03:51:48.307Z,11.7
2017-07-14T03:52:55.779Z,11.7
2017-07-14T03:54:03.249Z,11.7
2017-07-14T03:55:10.726Z,11.7
2017-07-14T03:56:18.197Z,11.7
2017-07-14T03:57:25.593Z,11.7
2017-07-14T03:58:33.099Z,11.8
2017-07-14T03:59:40.576Z,11.8
2017-07-14T04:00:48.051Z,11.8
2017-07-14T04:01:55.532Z,11.9
2017-07-14T04:03:03.006Z,11.9
2017-07-14T04:04:10.476Z,11.9
2017-07-14T04:05:17.954Z,11.9
2017-07-14T04:06:25.428Z,11.9
2017-07-14T04:07:33.204Z,11.9
2017-07-14T04:08:40.678Z,12
2017-07-14T04:09:48.155Z,12
2017-07-14T04:10:55.627Z,12
2017-07-14T04:12:03.104Z,12
2017-07-14T04:13:10.874Z,12
2017-07-14T04:14:18.353Z,12
2017-07-14T04:15:25.831Z,12
2017-07-14T04:16:33.310Z,12.1
2017-07-14T04:17:40.785Z,12.1
2017-07-14T04:18:48.583Z,12.1
2017-07-14T04:19:56.057Z,12.1
2017-07-14T04:21:03.531Z,12.1
2017-07-14T04:22:11.005Z,12.1
2017-07-14T04:23:18.483Z,12.1
2017-07-14T04:24:26.210Z,12.1
2017-07-14T04:25:33.685Z,12.1
2017-07-14T04:26:41.164Z,12.1
2017-07-14T04:27:48.642Z,12.2
2017-07-14T04:28:56.115Z,12.2
2017-07-14T04:30:03.852Z,12.3
2017-07-14T04:31:11.325Z,12.3
2017-07-14T04:32:18.460Z,12.4
2017-07-14T04:33:25.934Z,12.4
2017-07-14T04:34:33.413Z,12.4
2017-07-14T04:35:41.192Z,12.5
2017-07-14T04:36:48.673Z,12.5
2017-07-14T04:37:56.149Z,12.6
2017-07-14T04:39:03.628Z,12.5
2017-07-14T04:40:11.099Z,12.6
2017-07-14T04:41:18.825Z,12.5
2017-07-14T04:42:26.295Z,12.5
2017-07-14T04:43:33.767Z,12.5
2017-07-14T04:44:41.248Z,12.5
2017-07-14T04:45:48.723Z,12.5
2017-07-14T04:46:56.191Z,12.5
2017-07-14T04:48:03.670Z,12.5
2017-07-14T04:49:11.446Z,12.5
2017-07-14T04:50:18.930Z,12.5
2017-07-14T04:51:26.408Z,12.5
2017-07-14T04:52:33.884Z,12.5
2017-07-14T04:53:41.365Z,12.6
2017-07-14T04:54:49.140Z,12.6
2017-07-14T04:55:56.610Z,12.7
2017-07-14T04:57:04.089Z,12.8
2017-07-14T04:58:11.565Z,12.9
2017-07-14T04:59:18.375Z,12.9
2017-07-14T05:00:25.820Z,12.9
2017-07-14T05:01:33.294Z,12.9
2017-07-14T05:02:40.771Z,13
2017-07-14T05:03:48.246Z,13
2017-07-14T05:04:55.719Z,13.1
2017-07-14T05:06:03.503Z,13.2
2017-07-14T05:07:10.966Z,13.3
2017-07-14T05:08:18.447Z,13.3
2017-07-14T05:09:25.924Z,13.4
2017-07-14T05:10:33.081Z,13.4
2017-07-14T05:11:40.856Z,13.5
2017-07-14T05:12:48.331Z,13.5
2017-07-14T05:13:55.809Z,13.6
2017-07-14T05:15:03.289Z,13.6
2017-07-14T05:16:10.755Z,13.7
2017-07-14T05:17:18.201Z,13.8
2017-07-14T05:18:25.676Z,13.8
2017-07-14T05:19:33.156Z,13.9
2017-07-14T05:20:40.305Z,13.9
2017-07-14T05:21:47.778Z,13.9
2017-07-14T05:22:55.557Z,13.9
2017-07-14T05:24:03.028Z,13.9
2017-07-14T05:25:10.510Z,13.9
2017-07-14T05:26:17.978Z,14
2017-07-14T05:27:25.473Z,14
2017-07-14T05:28:32.618Z,13.9
2017-07-14T05:29:39.757Z,13.9
2017-07-14T05:30:47.233Z,13.8
2017-07-14T05:31:55.004Z,13.8
2017-07-14T05:33:02.476Z,13.7
2017-07-14T05:34:09.949Z,13.7
2017-07-14T05:35:17.427Z,13.8
2017-07-14T05:36:24.899Z,13.8
2017-07-14T05:37:32.677Z,13.8
2017-07-14T05:38:40.153Z,13.8
2017-07-14T05:39:47.626Z,13.9
2017-07-14T05:40:55.098Z,13.9
2017-07-14T05:42:02.245Z,13.9
2017-07-14T05:43:10.028Z,14
2017-07-14T05:44:17.508Z,14
2017-07-14T05:45:24.984Z,14
2017-07-14T05:46:32.459Z,14.1
2017-07-14T05:47:39.942Z,14.1
2017-07-14T05:48:47.417Z,14
2017-07-14T05:49:54.914Z,14
2017-07-14T05:51:02.389Z,14
2017-07-14T05:52:09.201Z,14
2017-07-14T05:53:16.974Z,13.9
2017-07-14T05:54:24.454Z,13.9
2017-07-14T05:55:31.933Z,13.8
2017-07-14T05:56:39.412Z,13.8
2017-07-14T05:57:46.882Z,13.8
2017-07-14T05:58:54.661Z,13.7
2017-07-14T06:00:02.134Z,13.7
2017-07-14T06:01:09.612Z,13.7
2017-07-14T06:02:17.091Z,13.6
2017-07-14T06:03:24.565Z,13.6
2017-07-14T06:04:32.009Z,13.9
2017-07-14T06:05:39.149Z,14.1
2017-07-14T06:06:46.621Z,14.3
2017-07-14T06:07:54.093Z,14.6
2017-07-14T06:09:01.566Z,15
2017-07-14T06:10:09.353Z,15.3
2017-07-14T06:11:16.832Z,15.4
2017-07-14T06:12:24.306Z,15.6
2017-07-14T06:13:31.788Z,15.9
2017-07-14T06:14:39.261Z,16
2017-07-14T06:15:46.732Z,16
2017-07-14T06:16:54.204Z,16.1
2017-07-14T06:18:01.347Z,16.1
2017-07-14T06:19:08.828Z,16
2017-07-14T06:20:16.308Z,15.9
2017-07-14T06:21:24.088Z,15.8
2017-07-14T06:22:30.922Z,15.8
2017-07-14T06:23:38.400Z,15.7
2017-07-14T06:24:45.548Z,15.8
2017-07-14T06:25:53.027Z,15.8
2017-07-14T06:27:00.808Z,15.9
2017-07-14T06:28:08.283Z,16
2017-07-14T06:29:15.773Z,16.1
2017-07-14T06:30:23.249Z,16.3
2017-07-14T06:31:30.729Z,16.5
2017-07-14T06:32:38.561Z,16.6
2017-07-14T06:33:46.037Z,16.8
2017-07-14T06:34:53.175Z,16.9
2017-07-14T06:36:00.656Z,16.8
2017-07-14T06:37:07.796Z,16.9
2017-07-14T06:38:15.574Z,16.8
2017-07-14T06:39:23.052Z,16.9
2017-07-14T06:40:30.739Z,17
2017-07-14T06:41:38.213Z,17
2017-07-14T06:42:45.688Z,17.2
2017-07-14T06:43:53.634Z,17.3
2017-07-14T06:45:01.129Z,17.3
2017-07-14T06:46:08.607Z,17.4
2017-07-14T06:47:15.749Z,17.6
2017-07-14T06:48:23.223Z,18
2017-07-14T06:49:31.012Z,18.3
2017-07-14T06:50:38.485Z,18.3
2017-07-14T06:51:46.162Z,18.4
2017-07-14T06:52:53.635Z,18.3
2017-07-14T06:54:01.122Z,18.3
2017-07-14T06:55:08.598Z,18.4
2017-07-14T06:56:16.082Z,18.4
2017-07-14T06:57:23.565Z,18.3
2017-07-14T06:58:31.041Z,18.3
2017-07-14T06:59:38.523Z,18.3
2017-07-14T07:00:46.300Z,18.5
2017-07-14T07:01:53.777Z,18.9
2017-07-14T07:03:01.256Z,19.4
2017-07-14T07:04:08.729Z,19.7
2017-07-14T07:05:16.205Z,19.8
2017-07-14T07:06:23.662Z,20
2017-07-14T07:07:30.809Z,20.2
2017-07-14T07:08:38.282Z,20.3
2017-07-14T07:09:45.760Z,20.5
2017-07-14T07:10:53.232Z,20.8
2017-07-14T07:12:00.711Z,21
2017-07-14T07:13:08.192Z,20.9
2017-07-14T07:14:15.672Z,20.9
2017-07-14T07:15:22.836Z,20.9
2017-07-14T07:16:30.317Z,20.8
2017-07-14T07:17:38.093Z,20.7
2017-07-14T07:18:45.574Z,20.4
2017-07-14T07:19:53.056Z,20.3
2017-07-14T07:21:00.530Z,20.2
2017-07-14T07:22:08.007Z,20.3
2017-07-14T07:23:15.781Z,20.6
2017-07-14T07:24:23.266Z,20.9
2017-07-14T07:25:30.746Z,21.1
2017-07-14T07:26:38.235Z,21.3
2017-07-14T07:27:45.752Z,21.2
2017-07-14T07:28:53.209Z,21
2017-07-14T07:30:00.689Z,21
2017-07-14T07:31:07.834Z,21
2017-07-14T07:32:15.311Z,21
2017-07-14T07:33:22.797Z,21.3
2017-07-14T07:34:30.281Z,21.3
2017-07-14T07:35:37.755Z,21.3
2017-07-14T07:36:45.236Z,21.3
2017-07-14T07:37:52.713Z,21.4
2017-07-14T07:39:00.184Z,21.4
2017-07-14T07:40:07.968Z,21.4
2017-07-14T07:41:15.447Z,21.6
2017-07-14T07:42:22.928Z,21.7
2017-07-14T07:43:30.410Z,21.9
2017-07-14T07:44:37.550Z,21.7
2017-07-14T07:45:45.338Z,21.6
2017-07-14T07:46:52.819Z,21.5
2017-07-14T07:47:59.969Z,21.4
2017-07-14T07:49:07.454Z,21.3
2017-07-14T07:50:14.930Z,21.2
2017-07-14T07:51:22.041Z,21
2017-07-14T07:52:29.523Z,21
2017-07-14T07:53:37.003Z,21.1
2017-07-14T07:54:44.482Z,21
2017-07-14T07:55:51.965Z,21.1
2017-07-14T07:56:59.114Z,21.3
2017-07-14T07:58:06.606Z,21.4
2017-07-14T07:59:13.756Z,21.5
2017-07-14T08:00:21.236Z,21.7
2017-07-14T08:01:28.728Z,21.8
2017-07-14T08:02:36.508Z,21.8
2017-07-14T08:03:43.985Z,22
2017-07-14T08:04:51.466Z,22.1
2017-07-14T08:05:58.950Z,21.9
2017-07-14T08:07:06.435Z,21.9
2017-07-14T08:08:14.160Z,22
2017-07-14T08:09:21.635Z,22
2017-07-14T08:10:29.113Z,22.1
2017-07-14T08:11:36.593Z,22.1
2017-07-14T08:12:43.748Z,21.8
2017-07-14T08:13:51.481Z,21.6
2017-07-14T08:14:58.975Z,21.2
2017-07-14T08:16:06.460Z,21.2
2017-07-14T08:17:13.937Z,21.3
2017-07-14T08:18:21.431Z,21.3
2017-07-14T08:19:29.171Z,21.2
2017-07-14T08:20:36.316Z,21.1
2017-07-14T08:21:43.808Z,21.1
2017-07-14T08:22:51.320Z,21.2
2017-07-14T08:23:58.803Z,21.2
2017-07-14T08:25:06.532Z,21.2
2017-07-14T08:26:14.017Z,21.2
2017-07-14T08:27:21.499Z,21.1
2017-07-14T08:28:28.987Z,21
2017-07-14T08:29:35.761Z,20.9
2017-07-14T08:30:43.544Z,20.9
2017-07-14T08:31:51.024Z,20.8
2017-07-14T08:32:58.508Z,20.7
2017-07-14T08:34:05.663Z,20.6
2017-07-14T08:35:13.142Z,20.5
2017-07-14T08:36:20.925Z,20.6
2017-07-14T08:37:28.414Z,20.5
2017-07-14T08:38:35.892Z,20.5
2017-07-14T08:39:43.377Z,20.4
2017-07-14T08:40:50.194Z,20.3
2017-07-14T08:41:57.680Z,20.2
2017-07-14T08:43:05.164Z,20.1
2017-07-14T08:44:12.570Z,20
2017-07-14T08:45:20.052Z,19.9
2017-07-14T08:46:27.528Z,19.8
2017-07-14T08:47:35.003Z,19.8
2017-07-14T08:48:42.507Z,19.7
2017-07-14T08:49:50.238Z,19.7
2017-07-14T08:50:57.724Z,19.7
2017-07-14T08:52:05.202Z,19.8
2017-07-14T08:53:12.359Z,19.8
2017-07-14T08:54:19.840Z,19.8
2017-07-14T08:55:27.322Z,19.8
2017-07-14T08:56:34.473Z,19.7
2017-07-14T08:57:41.958Z,19.7
2017-07-14T08:58:49.732Z,19.7
2017-07-14T08:59:57.213Z,19.7
2017-07-14T09:01:04.683Z,19.6
2017-07-14T09:02:12.161Z,19.6
2017-07-14T09:03:19.645Z,19.6
2017-07-14T09:04:27.420Z,19.6
2017-07-14T09:05:34.904Z,19.6
2017-07-14T09:06:42.384Z,19.6
2017-07-14T09:07:49.863Z,19.5
2017-07-14T09:08:57.349Z,19.6
2017-07-14T09:10:05.136Z,19.5
2017-07-14T09:11:12.628Z,19.5
2017-07-14T09:12:20.149Z,19.4
2017-07-14T09:13:27.633Z,19.4
2017-07-14T09:14:34.803Z,19.3
2017-07-14T09:15:42.284Z,19.2
2017-07-14T09:16:48.768Z,19.1
2017-07-14T09:17:56.249Z,19.1
2017-07-14T09:19:03.739Z,18.9
2017-07-14T09:20:11.221Z,18.9
2017-07-14T09:21:19.002Z,18.8
2017-07-14T09:22:26.481Z,18.8
2017-07-14T09:23:33.636Z,18.8
2017-07-14T09:24:40.791Z,18.9
2017-07-14T09:25:47.938Z,18.9
2017-07-14T09:26:55.721Z,18.9
2017-07-14T09:28:03.201Z,18.9
2017-07-14T09:29:10.687Z,18.9
2017-07-14T09:30:18.167Z,19
2017-07-14T09:31:25.324Z,19
2017-07-14T09:32:33.099Z,19
2017-07-14T09:33:40.579Z,18.9
2017-07-14T09:34:47.726Z,18.9
2017-07-14T09:35:55.215Z,18.9
2017-07-14T09:37:02.694Z,18.9
2017-07-14T09:38:10.480Z,19
2017-07-14T09:39:17.960Z,19.2
2017-07-14T09:40:25.440Z,19.3
2017-07-14T09:41:32.916Z,19.3
2017-07-14T09:42:40.400Z,19.4
2017-07-14T09:43:48.183Z,19.4
2017-07-14T09:44:55.663Z,19.6
2017-07-14T09:46:03.145Z,19.7
2017-07-14T09:47:10.639Z,19.5
2017-07-14T09:48:18.124Z,19.6
2017-07-14T09:49:25.908Z,20.1
2017-07-14T09:50:33.392Z,20.4
2017-07-14T09:51:40.870Z,20.7
2017-07-14T09:52:48.347Z,21
2017-07-14T09:53:55.827Z,21.3
2017-07-14T09:55:03.308Z,21.7
2017-07-14T09:56:10.783Z,22
2017-07-14T09:57:17.941Z,22.2
2017-07-14T09:58:25.086Z,22.1
2017-07-14T09:59:32.567Z,22.1
2017-07-14T10:00:40.347Z,22.1
2017-07-14T10:01:47.159Z,22
2017-07-14T10:02:54.638Z,22.1
2017-07-14T10:04:02.118Z,22.4
2017-07-14T10:05:09.610Z,22.6
2017-07-14T10:06:17.387Z,22.8
2017-07-14T10:07:24.199Z,23
2017-07-14T10:08:31.685Z,23.4
2017-07-14T10:09:38.828Z,23.7
2017-07-14T10:10:46.319Z,24.2
2017-07-14T10:11:54.097Z,24.3
2017-07-14T10:13:01.585Z,24.4
2017-07-14T10:14:09.077Z,24.7
2017-07-14T10:15:16.782Z,24.9
2017-07-14T10:16:24.265Z,25.1
2017-07-14T10:17:31.747Z,25.1
2017-07-14T10:18:39.225Z,24.9
2017-07-14T10:19:46.370Z,24.8
2017-07-14T10:20:53.852Z,24.8
2017-07-14T10:22:01.630Z,24.5
2017-07-14T10:23:09.111Z,24.6
2017-07-14T10:24:16.813Z,24.6
2017-07-14T10:25:24.333Z,24.7
2017-07-14T10:26:31.815Z,24.7
2017-07-14T10:27:39.591Z,24.8
2017-07-14T10:28:46.742Z,24.1
2017-07-14T10:29:53.916Z,23.3
2017-07-14T10:31:01.396Z,22.7
2017-07-14T10:32:08.867Z,22.8
2017-07-14T10:33:16.604Z,23.2
2017-07-14T10:34:24.083Z,23.5
2017-07-14T10:35:31.563Z,23.4
2017-07-14T10:36:39.044Z,23.6
2017-07-14T10:37:46.527Z,23.2
2017-07-14T10:38:54.312Z,23.2
2017-07-14T10:40:01.129Z,23.5
2017-07-14T10:41:08.610Z,23.9
2017-07-14T10:42:16.096Z,24.2
2017-07-14T10:43:23.579Z,24.5
2017-07-14T10:44:31.314Z,24.3
2017-07-14T10:45:38.796Z,24.1
2017-07-14T10:46:46.279Z,24
2017-07-14T10:47:53.767Z,23.9
2017-07-14T10:49:00.929Z,23.9
2017-07-14T10:50:08.711Z,23.9
2017-07-14T10:51:16.202Z,23.7
2017-07-14T10:52:23.684Z,23.6
2017-07-14T10:53:31.162Z,23.5
2017-07-14T10:54:38.645Z,23.6
2017-07-14T10:55:46.441Z,23.6
2017-07-14T10:56:53.918Z,23.6
2017-07-14T10:58:01.402Z,23.7
2017-07-14T10:59:08.881Z,23.8
2017-07-14T11:00:16.046Z,23.9
2017-07-14T11:01:23.204Z,23.8
2017-07-14T11:02:30.688Z,23.9
2017-07-14T11:03:38.180Z,23.8
2017-07-14T11:04:45.658Z,23.8
2017-07-14T11:05:53.136Z,23.8
2017-07-14T11:07:00.584Z,23.6
2017-07-14T11:08:07.736Z,23.4
2017-07-14T11:09:14.886Z,23.3
2017-07-14T11:10:22.371Z,23.4
2017-07-14T11:11:29.530Z,23.3
2017-07-14T11:12:37.311Z,23.3
2017-07-14T11:13:44.802Z,23.2
2017-07-14T11:14:52.289Z,23.3
2017-07-14T11:15:59.432Z,23.4
2017-07-14T11:17:06.919Z,23.3
2017-07-14T11:18:14.721Z,23.2
2017-07-14T11:19:22.205Z,23
2017-07-14T11:20:29.687Z,23.1
2017-07-14T11:21:37.168Z,23.1
2017-07-14T11:22:44.652Z,23.1
2017-07-14T11:23:52.142Z,22.9
2017-07-14T11:24:59.621Z,22.8
2017-07-14T11:26:07.105Z,22.8
2017-07-14T11:27:14.582Z,22.8
2017-07-14T11:28:22.067Z,22.7
2017-07-14T11:29:29.858Z,22.8
2017-07-14T11:30:37.012Z,22.9
2017-07-14T11:31:44.496Z,23.1
2017-07-14T11:32:51.982Z,22.9
2017-07-14T11:33:59.154Z,22.9
2017-07-14T11:35:06.938Z,22.8
2017-07-14T11:36:14.426Z,22.5
2017-07-14T11:37:21.911Z,22.5
2017-07-14T11:38:29.396Z,22.5
2017-07-14T11:39:36.883Z,22.3
2017-07-14T11:40:44.679Z,22.2
2017-07-14T11:41:52.162Z,22.2
2017-07-14T11:42:59.645Z,22.3
2017-07-14T11:44:07.134Z,22.4
2017-07-14T11:45:14.616Z,22.5
2017-07-14T11:46:22.066Z,22.3
2017-07-14T11:47:29.543Z,22.2
2017-07-14T11:48:37.029Z,22.1
2017-07-14T11:49:44.512Z,22
2017-07-14T11:50:51.997Z,22
2017-07-14T11:51:59.444Z,21.9
2017-07-14T11:53:06.930Z,21.7
2017-07-14T11:54:14.414Z,21.6
2017-07-14T11:55:21.904Z,21.5
2017-07-14T11:56:29.392Z,21.5
2017-07-14T11:57:37.178Z,21.6
2017-07-14T11:58:43.990Z,21.6
2017-07-14T11:59:51.481Z,21.5
2017-07-14T12:00:58.961Z,21.4
2017-07-14T12:02:06.117Z,21.3
2017-07-14T12:03:13.900Z,21.4
2017-07-14T12:04:21.386Z,21.1
2017-07-14T12:05:28.863Z,21.1
2017-07-14T12:06:36.343Z,21
2017-07-14T12:07:43.824Z,20.8
2017-07-14T12:08:51.266Z,20.8
2017-07-14T12:09:58.749Z,21.1
2017-07-14T12:11:06.236Z,21.3
2017-07-14T12:12:13.724Z,21.7
2017-07-14T12:13:20.880Z,22
2017-07-14T12:14:28.332Z,22.4
2017-07-14T12:15:35.813Z,22.9
2017-07-14T12:16:43.306Z,23.2
2017-07-14T12:17:50.804Z,23.5
2017-07-14T12:18:58.286Z,23.2
2017-07-14T12:20:05.747Z,23.2
2017-07-14T12:21:12.914Z,23.1
2017-07-14T12:22:20.054Z,23.1
2017-07-14T12:23:27.212Z,23.1
2017-07-14T12:24:34.701Z,22.8
2017-07-14T12:25:41.850Z,22.6
2017-07-14T12:26:48.992Z,22.5
2017-07-14T12:27:56.475Z,22.4
2017-07-14T12:29:03.954Z,22.4
2017-07-14T12:30:11.737Z,21.9
2017-07-14T12:31:19.217Z,21.9
2017-07-14T12:32:26.704Z,22
2017-07-14T12:33:33.514Z,22.1
2017-07-14T12:34:40.670Z,22.1
2017-07-14T12:35:48.126Z,21.8
2017-07-14T12:36:54.965Z,21.8
2017-07-14T12:38:02.447Z,22
2017-07-14T12:39:09.598Z,21.5
2017-07-14T12:40:16.751Z,21.5
2017-07-14T12:41:24.528Z,21.9
2017-07-14T12:42:31.687Z,22.1
2017-07-14T12:43:39.169Z,22.4
2017-07-14T12:44:46.643Z,22.7
2017-07-14T12:45:53.788Z,22.5
2017-07-14T12:47:01.572Z,22.4
2017-07-14T12:48:08.724Z,22.5
2017-07-14T12:49:15.883Z,22.9
2017-07-14T12:50:23.358Z,23.2
2017-07-14T12:51:30.839Z,23.1
2017-07-14T12:52:37.662Z,23.3
2017-07-14T12:53:45.141Z,23.6
2017-07-14T12:54:52.630Z,23.6
2017-07-14T12:56:00.109Z,23.8
2017-07-14T12:57:07.592Z,23.4
2017-07-14T12:58:15.374Z,23.2
2017-07-14T12:59:22.517Z,23
2017-07-14T13:00:29.992Z,23
2017-07-14T13:01:37.483Z,23
2017-07-14T13:02:44.957Z,23.2
2017-07-14T13:03:52.739Z,23.5
2017-07-14T13:05:00.226Z,23.3
2017-07-14T13:06:07.067Z,23.3
2017-07-14T13:07:14.552Z,23.5
2017-07-14T13:08:22.036Z,23.8
2017-07-14T13:09:29.491Z,23.8
2017-07-14T13:10:36.644Z,23.7
2017-07-14T13:11:44.125Z,23.6
2017-07-14T13:12:51.607Z,23.4
2017-07-14T13:13:58.761Z,23.4
2017-07-14T13:15:06.597Z,23.3
2017-07-14T13:16:13.756Z,23.3
2017-07-14T13:17:20.898Z,23.2
2017-07-14T13:18:28.379Z,23.2
2017-07-14T13:19:35.532Z,23.5
2017-07-14T13:20:43.036Z,23.5
2017-07-14T13:21:50.523Z,23.7
2017-07-14T13:22:58.001Z,24.1
2017-07-14T13:24:05.487Z,24.5
2017-07-14T13:25:12.977Z,24.9
2017-07-14T13:26:20.462Z,24.8
2017-07-14T13:27:28.240Z,24.3
2017-07-14T13:28:35.722Z,24.4
2017-07-14T13:29:43.212Z,24.6
2017-07-14T13:30:50.365Z,24.7
2017-07-14T13:31:57.838Z,24.5
2017-07-14T13:33:05.283Z,24.8
2017-07-14T13:34:12.426Z,25.2
2017-07-14T13:35:19.930Z,25.2
2017-07-14T13:36:27.406Z,25.1
2017-07-14T13:37:34.889Z,25.2
2017-07-14T13:38:42.668Z,25.4
2017-07-14T13:39:50.152Z,25.4
2017-07-14T13:40:57.645Z,25.2
2017-07-14T13:42:04.789Z,24.9
2017-07-14T13:43:12.272Z,24.6
2017-07-14T13:44:20.063Z,24.3
2017-07-14T13:45:27.544Z,24.3
2017-07-14T13:46:34.686Z,24.2
2017-07-14T13:47:42.174Z,24.3
2017-07-14T13:48:49.333Z,24.4
2017-07-14T13:49:57.115Z,24.3
2017-07-14T13:51:04.273Z,24.2
2017-07-14T13:52:11.754Z,23.9
2017-07-14T13:53:18.908Z,23.9
2017-07-14T13:54:26.396Z,23.8
2017-07-14T13:55:33.880Z,23.8
2017-07-14T13:56:41.718Z,23.8
2017-07-14T13:57:49.193Z,23.9
2017-07-14T13:58:56.672Z,24.1
2017-07-14T14:00:04.154Z,24.3
2017-07-14T14:01:11.629Z,24.6
2017-07-14T14:02:19.411Z,24.8
2017-07-14T14:03:26.558Z,25.3
2017-07-14T14:04:33.711Z,25.1
2017-07-14T14:05:41.197Z,24.9
2017-07-14T14:06:48.030Z,25.4
2017-07-14T14:07:55.529Z,25.9
2017-07-14T14:09:03.015Z,26.3
2017-07-14T14:10:10.513Z,26.4
2017-07-14T14:11:18.001Z,26.1
2017-07-14T14:12:25.154Z,26
2017-07-14T14:13:32.995Z,25.5
2017-07-14T14:14:40.146Z,25.6
2017-07-14T14:15:47.296Z,25.7
2017-07-14T14:16:54.125Z,25.9
2017-07-14T14:18:01.273Z,26.2
2017-07-14T14:19:08.752Z,26.2
2017-07-14T14:20:16.233Z,26
2017-07-14T14:21:23.717Z,26.1
2017-07-14T14:22:30.867Z,25.9
2017-07-14T14:23:38.353Z,26.3
2017-07-14T14:24:46.138Z,26.2
2017-07-14T14:25:53.287Z,25.6
2017-07-14T14:27:00.442Z,25.1
2017-07-14T14:28:07.931Z,24.8
2017-07-14T14:29:15.417Z,25
2017-07-14T14:30:22.902Z,25
2017-07-14T14:31:30.352Z,24.7
2017-07-14T14:32:37.834Z,24.5
2017-07-14T14:33:44.649Z,24.4
2017-07-14T14:34:52.128Z,24.2
2017-07-14T14:35:58.945Z,24.2
2017-07-14T14:37:06.110Z,24.1
2017-07-14T14:38:13.599Z,24.3
2017-07-14T14:39:21.084Z,23.9
2017-07-14T14:40:28.570Z,24.1
2017-07-14T14:41:35.724Z,24
2017-07-14T14:42:42.948Z,24
2017-07-14T14:43:50.431Z,24.1
2017-07-14T14:44:58.155Z,24.1
2017-07-14T14:46:05.628Z,23.7
2017-07-14T14:47:13.117Z,23.4
2017-07-14T14:48:20.475Z,23.3
2017-07-14T14:49:27.957Z,23.3
2017-07-14T14:50:35.109Z,23.1
2017-07-14T14:51:42.599Z,23.2
2017-07-14T14:52:49.747Z,23.3
2017-07-14T14:53:57.206Z,23.2
2017-07-14T14:55:04.360Z,23.1
2017-07-14T14:56:11.512Z,23
2017-07-14T14:57:18.672Z,22.9
2017-07-14T14:58:25.823Z,22.8
2017-07-14T14:59:33.608Z,22.7
2017-07-14T15:00:40.423Z,22.7
2017-07-14T15:01:47.575Z,22.6
2017-07-14T15:02:55.063Z,22.5
2017-07-14T15:04:02.543Z,22.4